N219KC EFHK-ULLI
Flight info
| Callsign | N219KC |
|---|---|
| Flight time | 1h 31m |
| Altitude | 9000 |
| Route | ARVEP T82 RATMU DCT OLEMA L24 AKARU |
| Aircraft | DA40/L-SBDGRY/S |
Departure
| Time | 2026-04-23 18:17 |
|---|---|
| Airport | Helsinki Vantaa Airport (EFHK) |
Arrival
| Time | 2026-04-23 19:48 |
|---|---|
| Airport | Pulkovo Airport (ULLI) |
| Time | Latitude | Longitude | Altitude | Speed | Heading |
|---|---|---|---|---|---|
| 2026-04-23 17:34 | 60.30866 | 24.98062 | 151 ft | 0 kts | 242° |
| 2026-04-23 18:01 | 60.30865 | 24.98059 | 151 ft | 1 kts | 248° |
| 2026-04-23 18:01 | 60.30869 | 24.98023 | 151 ft | 1 kts | 315° |
| 2026-04-23 18:01 | 60.30887 | 24.98001 | 151 ft | 3 kts | 357° |
| 2026-04-23 18:02 | 60.30903 | 24.98030 | 151 ft | 6 kts | 57° |
| 2026-04-23 18:02 | 60.30938 | 24.98166 | 151 ft | 8 kts | 62° |
| 2026-04-23 18:02 | 60.30978 | 24.98200 | 151 ft | 7 kts | 352° |
| 2026-04-23 18:02 | 60.31052 | 24.98140 | 151 ft | 14 kts | 334° |
| 2026-04-23 18:03 | 60.31137 | 24.98054 | 150 ft | 12 kts | 332° |
| 2026-04-23 18:03 | 60.31231 | 24.97955 | 150 ft | 17 kts | 333° |
| 2026-04-23 18:03 | 60.31336 | 24.97849 | 150 ft | 14 kts | 334° |
| 2026-04-23 18:03 | 60.31411 | 24.97769 | 150 ft | 12 kts | 333° |
| 2026-04-23 18:04 | 60.31498 | 24.97680 | 151 ft | 15 kts | 333° |
| 2026-04-23 18:04 | 60.31599 | 24.97576 | 151 ft | 16 kts | 333° |
| 2026-04-23 18:04 | 60.31694 | 24.97478 | 151 ft | 13 kts | 332° |
| 2026-04-23 18:04 | 60.31778 | 24.97391 | 152 ft | 15 kts | 332° |
| 2026-04-23 18:05 | 60.31877 | 24.97286 | 153 ft | 17 kts | 334° |
| 2026-04-23 18:05 | 60.31989 | 24.97173 | 155 ft | 17 kts | 334° |
| 2026-04-23 18:05 | 60.32081 | 24.97079 | 157 ft | 11 kts | 333° |
| 2026-04-23 18:05 | 60.32123 | 24.97032 | 158 ft | 3 kts | 332° |
| 2026-04-23 18:06 | 60.32149 | 24.97004 | 158 ft | 6 kts | 336° |
| 2026-04-23 18:06 | 60.32211 | 24.96941 | 159 ft | 13 kts | 332° |
| 2026-04-23 18:06 | 60.32272 | 24.96879 | 160 ft | 12 kts | 333° |
| 2026-04-23 18:06 | 60.32299 | 24.96776 | 161 ft | 7 kts | 235° |
| 2026-04-23 18:07 | 60.32248 | 24.96660 | 162 ft | 15 kts | 227° |
| 2026-04-23 18:07 | 60.32164 | 24.96475 | 164 ft | 19 kts | 227° |
| 2026-04-23 18:07 | 60.32088 | 24.96310 | 165 ft | 5 kts | 227° |
| 2026-04-23 18:07 | 60.32082 | 24.96298 | 165 ft | 0 kts | 226° |
| 2026-04-23 18:09 | 60.32066 | 24.96264 | 165 ft | 8 kts | 227° |
| 2026-04-23 18:09 | 60.32006 | 24.96130 | 166 ft | 15 kts | 229° |
| 2026-04-23 18:09 | 60.31941 | 24.95980 | 166 ft | 11 kts | 225° |
| 2026-04-23 18:10 | 60.31879 | 24.95850 | 166 ft | 15 kts | 227° |
| 2026-04-23 18:10 | 60.31805 | 24.95683 | 166 ft | 16 kts | 227° |
| 2026-04-23 18:10 | 60.31740 | 24.95539 | 166 ft | 12 kts | 224° |
| 2026-04-23 18:10 | 60.31669 | 24.95388 | 165 ft | 15 kts | 230° |
| 2026-04-23 18:11 | 60.31601 | 24.95237 | 164 ft | 16 kts | 226° |
| 2026-04-23 18:11 | 60.31513 | 24.95038 | 163 ft | 20 kts | 226° |
| 2026-04-23 18:11 | 60.31430 | 24.94857 | 161 ft | 14 kts | 226° |
| 2026-04-23 18:11 | 60.31408 | 24.94731 | 159 ft | 6 kts | 281° |
| 2026-04-23 18:12 | 60.31426 | 24.94674 | 159 ft | 3 kts | 314° |
| 2026-04-23 18:12 | 60.31437 | 24.94652 | 158 ft | 0 kts | 311° |
| 2026-04-23 18:13 | 60.31437 | 24.94651 | 158 ft | 1 kts | 308° |
| 2026-04-23 18:14 | 60.31457 | 24.94605 | 158 ft | 8 kts | 314° |
| 2026-04-23 18:14 | 60.31509 | 24.94515 | 158 ft | 8 kts | 349° |
| 2026-04-23 18:14 | 60.31533 | 24.94525 | 158 ft | 0 kts | 48° |
| 2026-04-23 18:15 | 60.31540 | 24.94537 | 158 ft | 9 kts | 38° |
| 2026-04-23 18:15 | 60.31673 | 24.94820 | 162 ft | 51 kts | 49° |
| 2026-04-23 18:16 | 60.31972 | 24.95538 | 247 ft | 72 kts | 42° |
| 2026-04-23 18:16 | 60.32310 | 24.96310 | 404 ft | 73 kts | 38° |
| 2026-04-23 18:16 | 60.32541 | 24.97260 | 569 ft | 79 kts | 75° |
| 2026-04-23 18:17 | 60.32233 | 24.99411 | 914 ft | 79 kts | 94° |
| 2026-04-23 18:17 | 60.32143 | 25.00510 | 1076 ft | 81 kts | 104° |
| 2026-04-23 18:17 | 60.31919 | 25.01548 | 1249 ft | 81 kts | 104° |
| 2026-04-23 18:17 | 60.31733 | 25.02663 | 1388 ft | 85 kts | 104° |
| 2026-04-23 18:18 | 60.31557 | 25.03811 | 1534 ft | 87 kts | 102° |
| 2026-04-23 18:18 | 60.31363 | 25.05060 | 1681 ft | 95 kts | 102° |
| 2026-04-23 18:18 | 60.31163 | 25.06357 | 1843 ft | 99 kts | 101° |
| 2026-04-23 18:18 | 60.30960 | 25.07699 | 2040 ft | 101 kts | 100° |
| 2026-04-23 18:19 | 60.30754 | 25.09045 | 2237 ft | 102 kts | 98° |
| 2026-04-23 18:19 | 60.30545 | 25.10413 | 2437 ft | 103 kts | 101° |
| 2026-04-23 18:19 | 60.30316 | 25.11784 | 2641 ft | 104 kts | 101° |
| 2026-04-23 18:19 | 60.30080 | 25.13168 | 2839 ft | 105 kts | 101° |
| 2026-04-23 18:20 | 60.29834 | 25.14579 | 2977 ft | 111 kts | 102° |
| 2026-04-23 18:20 | 60.29643 | 25.16168 | 2993 ft | 121 kts | 86° |
| 2026-04-23 18:20 | 60.29589 | 25.17937 | 2993 ft | 131 kts | 88° |
| 2026-04-23 18:20 | 60.29528 | 25.19798 | 2982 ft | 132 kts | 89° |
| 2026-04-23 18:21 | 60.29463 | 25.21636 | 2978 ft | 132 kts | 88° |
| 2026-04-23 18:21 | 60.29401 | 25.23471 | 2996 ft | 130 kts | 88° |
| 2026-04-23 18:21 | 60.29340 | 25.25255 | 3085 ft | 124 kts | 88° |
| 2026-04-23 18:21 | 60.29282 | 25.26861 | 3348 ft | 109 kts | 85° |
| 2026-04-23 18:22 | 60.29233 | 25.28310 | 3642 ft | 99 kts | 83° |
| 2026-04-23 18:22 | 60.29189 | 25.29664 | 3885 ft | 96 kts | 82° |
| 2026-04-23 18:22 | 60.29148 | 25.31013 | 4102 ft | 97 kts | 82° |
| 2026-04-23 18:22 | 60.29103 | 25.32364 | 4312 ft | 98 kts | 81° |
| 2026-04-23 18:23 | 60.29074 | 25.33274 | 4446 ft | 98 kts | 82° |
| 2026-04-23 18:23 | 60.28963 | 25.36492 | 4935 ft | 100 kts | 81° |
| 2026-04-23 18:24 | 60.28868 | 25.39279 | 5366 ft | 101 kts | 81° |
| 2026-04-23 18:24 | 60.28818 | 25.40670 | 5581 ft | 100 kts | 81° |
| 2026-04-23 18:24 | 60.28767 | 25.42077 | 5776 ft | 101 kts | 81° |
| 2026-04-23 18:25 | 60.28665 | 25.44901 | 6200 ft | 101 kts | 80° |
| 2026-04-23 18:25 | 60.28615 | 25.46311 | 6425 ft | 101 kts | 79° |
| 2026-04-23 18:25 | 60.28564 | 25.47714 | 6637 ft | 102 kts | 79° |
| 2026-04-23 18:25 | 60.28513 | 25.49147 | 6845 ft | 102 kts | 78° |
| 2026-04-23 18:26 | 60.28461 | 25.50567 | 7056 ft | 102 kts | 78° |
| 2026-04-23 18:26 | 60.28411 | 25.51997 | 7281 ft | 102 kts | 78° |
| 2026-04-23 18:26 | 60.28359 | 25.53423 | 7479 ft | 104 kts | 77° |
| 2026-04-23 18:26 | 60.28308 | 25.54880 | 7690 ft | 104 kts | 78° |
| 2026-04-23 18:27 | 60.28254 | 25.56327 | 7910 ft | 103 kts | 77° |
| 2026-04-23 18:27 | 60.28201 | 25.57768 | 8108 ft | 104 kts | 77° |
| 2026-04-23 18:27 | 60.28148 | 25.59220 | 8322 ft | 104 kts | 76° |
| 2026-04-23 18:27 | 60.28095 | 25.60648 | 8533 ft | 103 kts | 76° |
| 2026-04-23 18:28 | 60.28042 | 25.62099 | 8738 ft | 104 kts | 75° |
| 2026-04-23 18:28 | 60.27993 | 25.63602 | 8847 ft | 114 kts | 77° |
| 2026-04-23 18:28 | 60.27933 | 25.65297 | 8850 ft | 127 kts | 80° |
| 2026-04-23 18:28 | 60.27866 | 25.67119 | 8839 ft | 133 kts | 80° |
| 2026-04-23 18:29 | 60.27795 | 25.69013 | 8831 ft | 137 kts | 81° |
| 2026-04-23 18:29 | 60.27722 | 25.70933 | 8830 ft | 139 kts | 80° |
| 2026-04-23 18:29 | 60.27649 | 25.72885 | 8825 ft | 141 kts | 81° |
| 2026-04-23 18:29 | 60.27573 | 25.74851 | 8822 ft | 142 kts | 81° |
| 2026-04-23 18:30 | 60.27496 | 25.76852 | 8826 ft | 142 kts | 81° |
| 2026-04-23 18:30 | 60.27419 | 25.78842 | 8829 ft | 143 kts | 81° |
| 2026-04-23 18:30 | 60.27343 | 25.80839 | 8828 ft | 143 kts | 80° |
| 2026-04-23 18:30 | 60.27266 | 25.82841 | 8826 ft | 144 kts | 81° |
| 2026-04-23 18:31 | 60.27190 | 25.84824 | 8829 ft | 144 kts | 81° |
| 2026-04-23 18:31 | 60.27112 | 25.86837 | 8829 ft | 144 kts | 81° |
| 2026-04-23 18:31 | 60.27035 | 25.88843 | 8831 ft | 144 kts | 81° |
| 2026-04-23 18:31 | 60.26957 | 25.90866 | 8830 ft | 144 kts | 81° |
| 2026-04-23 18:32 | 60.26876 | 25.92874 | 8833 ft | 144 kts | 81° |
| 2026-04-23 18:32 | 60.26802 | 25.94859 | 8835 ft | 143 kts | 81° |
| 2026-04-23 18:32 | 60.26723 | 25.96859 | 8836 ft | 143 kts | 81° |
| 2026-04-23 18:32 | 60.26644 | 25.98848 | 8843 ft | 143 kts | 81° |
| 2026-04-23 18:33 | 60.26564 | 26.00846 | 8847 ft | 143 kts | 80° |
| 2026-04-23 18:33 | 60.26486 | 26.02839 | 8846 ft | 143 kts | 81° |
| 2026-04-23 18:33 | 60.26405 | 26.04822 | 8846 ft | 143 kts | 81° |
| 2026-04-23 18:33 | 60.26326 | 26.06812 | 8848 ft | 143 kts | 81° |
| 2026-04-23 18:34 | 60.26246 | 26.08806 | 8846 ft | 143 kts | 81° |
| 2026-04-23 18:34 | 60.26165 | 26.10785 | 8856 ft | 142 kts | 81° |
| 2026-04-23 18:34 | 60.26084 | 26.12783 | 8873 ft | 142 kts | 81° |
| 2026-04-23 18:34 | 60.26005 | 26.14745 | 8875 ft | 142 kts | 81° |
| 2026-04-23 18:35 | 60.25924 | 26.16727 | 8877 ft | 142 kts | 81° |
| 2026-04-23 18:35 | 60.25841 | 26.18705 | 8855 ft | 144 kts | 81° |
| 2026-04-23 18:35 | 60.25760 | 26.20715 | 8844 ft | 144 kts | 81° |
| 2026-04-23 18:35 | 60.25675 | 26.22728 | 8845 ft | 143 kts | 81° |
| 2026-04-23 18:36 | 60.25591 | 26.24722 | 8845 ft | 143 kts | 81° |
| 2026-04-23 18:36 | 60.25509 | 26.26720 | 8844 ft | 143 kts | 81° |
| 2026-04-23 18:36 | 60.25426 | 26.28715 | 8845 ft | 143 kts | 81° |
| 2026-04-23 18:36 | 60.25342 | 26.30701 | 8841 ft | 142 kts | 81° |
| 2026-04-23 18:37 | 60.25259 | 26.32658 | 8844 ft | 142 kts | 81° |
| 2026-04-23 18:37 | 60.25175 | 26.34633 | 8842 ft | 142 kts | 80° |
| 2026-04-23 18:37 | 60.25090 | 26.36642 | 8841 ft | 143 kts | 81° |
| 2026-04-23 18:37 | 60.25006 | 26.38614 | 8844 ft | 142 kts | 81° |
| 2026-04-23 18:38 | 60.24881 | 26.40587 | 8844 ft | 145 kts | 85° |
| 2026-04-23 18:38 | 60.24716 | 26.42596 | 8844 ft | 145 kts | 85° |
| 2026-04-23 18:38 | 60.24549 | 26.44598 | 8842 ft | 145 kts | 86° |
| 2026-04-23 18:38 | 60.24379 | 26.46592 | 8840 ft | 145 kts | 85° |
| 2026-04-23 18:39 | 60.24210 | 26.48588 | 8840 ft | 145 kts | 86° |
| 2026-04-23 18:39 | 60.24039 | 26.50588 | 8843 ft | 145 kts | 85° |
| 2026-04-23 18:39 | 60.23869 | 26.52589 | 8843 ft | 145 kts | 85° |
| 2026-04-23 18:39 | 60.23801 | 26.54542 | 8848 ft | 139 kts | 77° |
| 2026-04-23 18:40 | 60.23792 | 26.56489 | 8845 ft | 139 kts | 76° |
| 2026-04-23 18:40 | 60.23785 | 26.58438 | 8844 ft | 139 kts | 76° |
| 2026-04-23 18:40 | 60.23779 | 26.60397 | 8841 ft | 139 kts | 75° |
| 2026-04-23 18:40 | 60.23775 | 26.62351 | 8839 ft | 139 kts | 76° |
| 2026-04-23 18:41 | 60.23770 | 26.64304 | 8836 ft | 139 kts | 76° |
| 2026-04-23 18:41 | 60.23765 | 26.66231 | 8832 ft | 140 kts | 76° |
| 2026-04-23 18:41 | 60.23760 | 26.68204 | 8830 ft | 140 kts | 77° |
| 2026-04-23 18:41 | 60.23755 | 26.70154 | 8826 ft | 140 kts | 77° |
| 2026-04-23 18:42 | 60.23749 | 26.72111 | 8827 ft | 140 kts | 76° |
| 2026-04-23 18:42 | 60.23744 | 26.74074 | 8825 ft | 140 kts | 76° |
| 2026-04-23 18:42 | 60.23739 | 26.76032 | 8825 ft | 140 kts | 76° |
| 2026-04-23 18:42 | 60.23734 | 26.77994 | 8827 ft | 140 kts | 76° |
| 2026-04-23 18:43 | 60.23727 | 26.79923 | 8826 ft | 140 kts | 76° |
| 2026-04-23 18:43 | 60.23720 | 26.81886 | 8829 ft | 140 kts | 76° |
| 2026-04-23 18:43 | 60.23712 | 26.83828 | 8827 ft | 140 kts | 76° |
| 2026-04-23 18:43 | 60.23707 | 26.85785 | 8826 ft | 139 kts | 76° |
| 2026-04-23 18:44 | 60.23701 | 26.87723 | 8826 ft | 139 kts | 76° |
| 2026-04-23 18:44 | 60.23692 | 26.89668 | 8829 ft | 139 kts | 77° |
| 2026-04-23 18:44 | 60.23685 | 26.91623 | 8826 ft | 139 kts | 76° |
| 2026-04-23 18:44 | 60.23678 | 26.93573 | 8828 ft | 139 kts | 77° |
| 2026-04-23 18:45 | 60.23667 | 26.95508 | 8829 ft | 139 kts | 76° |
| 2026-04-23 18:45 | 60.23659 | 26.97444 | 8829 ft | 138 kts | 76° |
| 2026-04-23 18:45 | 60.23650 | 26.99366 | 8828 ft | 139 kts | 76° |
| 2026-04-23 18:45 | 60.23642 | 27.01308 | 8825 ft | 139 kts | 76° |
| 2026-04-23 18:46 | 60.23631 | 27.03263 | 8828 ft | 139 kts | 75° |
| 2026-04-23 18:46 | 60.23622 | 27.05199 | 8829 ft | 139 kts | 75° |
| 2026-04-23 18:46 | 60.23611 | 27.07136 | 8831 ft | 139 kts | 76° |
| 2026-04-23 18:46 | 60.23603 | 27.09059 | 8832 ft | 139 kts | 76° |
| 2026-04-23 18:47 | 60.23591 | 27.11008 | 8829 ft | 139 kts | 76° |
| 2026-04-23 18:47 | 60.23582 | 27.12952 | 8829 ft | 139 kts | 76° |
| 2026-04-23 18:47 | 60.23571 | 27.14906 | 8830 ft | 139 kts | 77° |
| 2026-04-23 18:47 | 60.23558 | 27.16835 | 8831 ft | 138 kts | 76° |
| 2026-04-23 18:48 | 60.23547 | 27.18775 | 8833 ft | 138 kts | 76° |
| 2026-04-23 18:48 | 60.23535 | 27.20690 | 8833 ft | 139 kts | 76° |
| 2026-04-23 18:48 | 60.23523 | 27.22630 | 8832 ft | 139 kts | 76° |
| 2026-04-23 18:48 | 60.23510 | 27.24579 | 8831 ft | 139 kts | 76° |
| 2026-04-23 18:49 | 60.23497 | 27.26512 | 8831 ft | 138 kts | 76° |
| 2026-04-23 18:49 | 60.23483 | 27.28448 | 8831 ft | 138 kts | 76° |
| 2026-04-23 18:49 | 60.23470 | 27.30372 | 8831 ft | 138 kts | 76° |
| 2026-04-23 18:49 | 60.23458 | 27.32318 | 8831 ft | 138 kts | 76° |
| 2026-04-23 18:50 | 60.23447 | 27.33590 | 8830 ft | 138 kts | 76° |
| 2026-04-23 18:50 | 60.23429 | 27.36149 | 8829 ft | 138 kts | 76° |
| 2026-04-23 18:50 | 60.23416 | 27.38087 | 8827 ft | 138 kts | 76° |
| 2026-04-23 18:50 | 60.23401 | 27.40024 | 8825 ft | 138 kts | 77° |
| 2026-04-23 18:51 | 60.23384 | 27.41968 | 8824 ft | 138 kts | 76° |
| 2026-04-23 18:51 | 60.23370 | 27.43883 | 8822 ft | 138 kts | 76° |
| 2026-04-23 18:51 | 60.23354 | 27.45826 | 8823 ft | 138 kts | 76° |
| 2026-04-23 18:51 | 60.23377 | 27.47731 | 8817 ft | 129 kts | 62° |
| 2026-04-23 18:52 | 60.23518 | 27.49520 | 8801 ft | 141 kts | 83° |
| 2026-04-23 18:52 | 60.23369 | 27.51484 | 8822 ft | 141 kts | 84° |
| 2026-04-23 18:52 | 60.23239 | 27.53434 | 8817 ft | 140 kts | 82° |
| 2026-04-23 18:52 | 60.23132 | 27.55364 | 8818 ft | 140 kts | 82° |
| 2026-04-23 18:53 | 60.23036 | 27.57300 | 8819 ft | 140 kts | 81° |
| 2026-04-23 18:53 | 60.22946 | 27.59253 | 8818 ft | 139 kts | 81° |
| 2026-04-23 18:53 | 60.22862 | 27.61194 | 8822 ft | 139 kts | 80° |
| 2026-04-23 18:53 | 60.22784 | 27.63130 | 8821 ft | 139 kts | 80° |
| 2026-04-23 18:54 | 60.22706 | 27.65078 | 8819 ft | 139 kts | 81° |
| 2026-04-23 18:54 | 60.22632 | 27.66996 | 8818 ft | 139 kts | 81° |
| 2026-04-23 18:54 | 60.22556 | 27.68945 | 8816 ft | 139 kts | 81° |
| 2026-04-23 18:54 | 60.22482 | 27.70872 | 8817 ft | 139 kts | 81° |
| 2026-04-23 18:55 | 60.22408 | 27.72805 | 8816 ft | 139 kts | 81° |
| 2026-04-23 18:55 | 60.22334 | 27.74741 | 8818 ft | 139 kts | 81° |
| 2026-04-23 18:55 | 60.22261 | 27.76679 | 8815 ft | 139 kts | 81° |
| 2026-04-23 18:55 | 60.22186 | 27.78615 | 8816 ft | 139 kts | 81° |
| 2026-04-23 18:56 | 60.22136 | 27.79897 | 8817 ft | 139 kts | 81° |
| 2026-04-23 18:56 | 60.22036 | 27.82498 | 8816 ft | 139 kts | 81° |
| 2026-04-23 18:56 | 60.21961 | 27.84423 | 8816 ft | 139 kts | 81° |
| 2026-04-23 18:56 | 60.21886 | 27.86351 | 8815 ft | 139 kts | 81° |
| 2026-04-23 18:57 | 60.21812 | 27.88277 | 8817 ft | 138 kts | 81° |
| 2026-04-23 18:57 | 60.21735 | 27.90212 | 8816 ft | 138 kts | 80° |
| 2026-04-23 18:57 | 60.21660 | 27.92146 | 8815 ft | 138 kts | 81° |
| 2026-04-23 18:57 | 60.21585 | 27.94055 | 8814 ft | 138 kts | 81° |
| 2026-04-23 18:58 | 60.21507 | 27.95997 | 8813 ft | 138 kts | 81° |
| 2026-04-23 18:58 | 60.21432 | 27.97901 | 8818 ft | 138 kts | 81° |
| 2026-04-23 18:58 | 60.21355 | 27.99810 | 8821 ft | 138 kts | 81° |
| 2026-04-23 18:58 | 60.21279 | 28.01752 | 8827 ft | 138 kts | 81° |
| 2026-04-23 18:59 | 60.21201 | 28.03669 | 8830 ft | 138 kts | 81° |
| 2026-04-23 18:59 | 60.21124 | 28.05566 | 8828 ft | 138 kts | 81° |
| 2026-04-23 18:59 | 60.21046 | 28.07500 | 8828 ft | 138 kts | 81° |
| 2026-04-23 18:59 | 60.20969 | 28.09419 | 8826 ft | 138 kts | 81° |
| 2026-04-23 19:00 | 60.20891 | 28.11350 | 8824 ft | 138 kts | 81° |
| 2026-04-23 19:00 | 60.20813 | 28.13266 | 8824 ft | 138 kts | 81° |
| 2026-04-23 19:00 | 60.20734 | 28.15175 | 8823 ft | 138 kts | 81° |
| 2026-04-23 19:00 | 60.20655 | 28.17080 | 8821 ft | 137 kts | 81° |
| 2026-04-23 19:01 | 60.20576 | 28.18995 | 8820 ft | 137 kts | 81° |
| 2026-04-23 19:01 | 60.20497 | 28.20898 | 8821 ft | 137 kts | 81° |
| 2026-04-23 19:01 | 60.20417 | 28.22826 | 8818 ft | 137 kts | 81° |
| 2026-04-23 19:01 | 60.20338 | 28.24727 | 8817 ft | 138 kts | 81° |
| 2026-04-23 19:02 | 60.20283 | 28.26008 | 8817 ft | 137 kts | 81° |
| 2026-04-23 19:02 | 60.20176 | 28.28553 | 8815 ft | 137 kts | 81° |
| 2026-04-23 19:02 | 60.20097 | 28.30455 | 8816 ft | 137 kts | 81° |
| 2026-04-23 19:02 | 60.20016 | 28.32377 | 8814 ft | 137 kts | 81° |
| 2026-04-23 19:03 | 60.19934 | 28.34282 | 8814 ft | 137 kts | 81° |
| 2026-04-23 19:03 | 60.19854 | 28.36176 | 8812 ft | 137 kts | 81° |
| 2026-04-23 19:03 | 60.19773 | 28.38081 | 8810 ft | 137 kts | 82° |
| 2026-04-23 19:03 | 60.19690 | 28.39981 | 8808 ft | 137 kts | 81° |
| 2026-04-23 19:04 | 60.19611 | 28.41877 | 8808 ft | 137 kts | 81° |
| 2026-04-23 19:04 | 60.19530 | 28.43783 | 8807 ft | 137 kts | 81° |
| 2026-04-23 19:04 | 60.19446 | 28.45698 | 8808 ft | 136 kts | 81° |
| 2026-04-23 19:04 | 60.19364 | 28.47599 | 8805 ft | 137 kts | 81° |
| 2026-04-23 19:05 | 60.19282 | 28.49483 | 8803 ft | 136 kts | 81° |
| 2026-04-23 19:05 | 60.19200 | 28.51381 | 8801 ft | 136 kts | 81° |
| 2026-04-23 19:05 | 60.19117 | 28.53266 | 8805 ft | 136 kts | 81° |
| 2026-04-23 19:05 | 60.19034 | 28.55204 | 8667 ft | 143 kts | 83° |
| 2026-04-23 19:06 | 60.18942 | 28.57207 | 8412 ft | 143 kts | 84° |
| 2026-04-23 19:06 | 60.18848 | 28.59181 | 8150 ft | 140 kts | 84° |
| 2026-04-23 19:06 | 60.18759 | 28.61074 | 7892 ft | 136 kts | 84° |
| 2026-04-23 19:06 | 60.18669 | 28.62940 | 7630 ft | 134 kts | 86° |
| 2026-04-23 19:07 | 60.18514 | 28.64784 | 7367 ft | 133 kts | 88° |
| 2026-04-23 19:07 | 60.18357 | 28.66607 | 7108 ft | 132 kts | 89° |
| 2026-04-23 19:07 | 60.18201 | 28.68408 | 6861 ft | 130 kts | 89° |
| 2026-04-23 19:07 | 60.18050 | 28.70150 | 6810 ft | 126 kts | 88° |
| 2026-04-23 19:08 | 60.17902 | 28.71892 | 6811 ft | 126 kts | 87° |
| 2026-04-23 19:08 | 60.17756 | 28.73634 | 6812 ft | 128 kts | 88° |
| 2026-04-23 19:08 | 60.17605 | 28.75400 | 6813 ft | 129 kts | 88° |
| 2026-04-23 19:08 | 60.17453 | 28.77166 | 6811 ft | 129 kts | 89° |
| 2026-04-23 19:09 | 60.17297 | 28.78938 | 6810 ft | 128 kts | 88° |
| 2026-04-23 19:09 | 60.17143 | 28.80693 | 6809 ft | 128 kts | 88° |
| 2026-04-23 19:09 | 60.16989 | 28.82455 | 6807 ft | 128 kts | 89° |
| 2026-04-23 19:09 | 60.16833 | 28.84221 | 6806 ft | 127 kts | 89° |
| 2026-04-23 19:10 | 60.16679 | 28.85962 | 6805 ft | 127 kts | 88° |
| 2026-04-23 19:10 | 60.16526 | 28.87696 | 6808 ft | 127 kts | 88° |
| 2026-04-23 19:10 | 60.16373 | 28.89426 | 6807 ft | 127 kts | 88° |
| 2026-04-23 19:10 | 60.16219 | 28.91162 | 6807 ft | 127 kts | 88° |
| 2026-04-23 19:11 | 60.16064 | 28.92911 | 6803 ft | 127 kts | 88° |
| 2026-04-23 19:11 | 60.15911 | 28.94659 | 6802 ft | 127 kts | 88° |
| 2026-04-23 19:11 | 60.15754 | 28.96411 | 6806 ft | 127 kts | 88° |
| 2026-04-23 19:11 | 60.15597 | 28.98174 | 6808 ft | 127 kts | 88° |
| 2026-04-23 19:12 | 60.15494 | 28.99331 | 6808 ft | 128 kts | 88° |
| 2026-04-23 19:12 | 60.15283 | 29.01681 | 6808 ft | 128 kts | 89° |
| 2026-04-23 19:12 | 60.15126 | 29.03434 | 6806 ft | 128 kts | 88° |
| 2026-04-23 19:12 | 60.14966 | 29.05200 | 6811 ft | 128 kts | 88° |
| 2026-04-23 19:13 | 60.14810 | 29.06939 | 6806 ft | 128 kts | 88° |
| 2026-04-23 19:13 | 60.14653 | 29.08683 | 6804 ft | 127 kts | 88° |
| 2026-04-23 19:13 | 60.14494 | 29.10446 | 6797 ft | 127 kts | 88° |
| 2026-04-23 19:13 | 60.14337 | 29.12189 | 6792 ft | 128 kts | 88° |
| 2026-04-23 19:14 | 60.14179 | 29.13946 | 6789 ft | 128 kts | 88° |
| 2026-04-23 19:14 | 60.14020 | 29.15712 | 6788 ft | 129 kts | 89° |
| 2026-04-23 19:14 | 60.13860 | 29.17478 | 6788 ft | 129 kts | 89° |
| 2026-04-23 19:14 | 60.13699 | 29.19247 | 6787 ft | 129 kts | 89° |
| 2026-04-23 19:15 | 60.13538 | 29.21012 | 6788 ft | 129 kts | 89° |
| 2026-04-23 19:15 | 60.13375 | 29.22782 | 6787 ft | 129 kts | 89° |
| 2026-04-23 19:15 | 60.13211 | 29.24564 | 6788 ft | 129 kts | 89° |
| 2026-04-23 19:15 | 60.13050 | 29.26319 | 6788 ft | 129 kts | 88° |
| 2026-04-23 19:16 | 60.12888 | 29.28099 | 6787 ft | 129 kts | 88° |
| 2026-04-23 19:16 | 60.12728 | 29.29854 | 6786 ft | 129 kts | 88° |
| 2026-04-23 19:16 | 60.12564 | 29.31635 | 6788 ft | 129 kts | 88° |
| 2026-04-23 19:17 | 60.12241 | 29.35161 | 6786 ft | 129 kts | 89° |
| 2026-04-23 19:17 | 60.12077 | 29.36939 | 6786 ft | 129 kts | 89° |
| 2026-04-23 19:17 | 60.11915 | 29.38700 | 6773 ft | 130 kts | 89° |
| 2026-04-23 19:17 | 60.11749 | 29.40489 | 6650 ft | 131 kts | 90° |
| 2026-04-23 19:18 | 60.11581 | 29.42274 | 6518 ft | 130 kts | 90° |
| 2026-04-23 19:18 | 60.11412 | 29.44072 | 6389 ft | 130 kts | 90° |
| 2026-04-23 19:18 | 60.11248 | 29.45834 | 6264 ft | 130 kts | 90° |
| 2026-04-23 19:18 | 60.11081 | 29.47610 | 6136 ft | 130 kts | 89° |
| 2026-04-23 19:19 | 60.10749 | 29.51174 | 5879 ft | 131 kts | 90° |
| 2026-04-23 19:19 | 60.10581 | 29.52960 | 5752 ft | 130 kts | 90° |
| 2026-04-23 19:20 | 60.10247 | 29.56540 | 5496 ft | 131 kts | 90° |
| 2026-04-23 19:20 | 60.10080 | 29.58316 | 5371 ft | 131 kts | 91° |
| 2026-04-23 19:20 | 60.09909 | 29.60118 | 5242 ft | 131 kts | 90° |
| 2026-04-23 19:20 | 60.09741 | 29.61915 | 5115 ft | 131 kts | 91° |
| 2026-04-23 19:21 | 60.09573 | 29.63679 | 4986 ft | 131 kts | 90° |
| 2026-04-23 19:21 | 60.09234 | 29.67274 | 4785 ft | 130 kts | 91° |
| 2026-04-23 19:21 | 60.09063 | 29.69077 | 4782 ft | 131 kts | 90° |
| 2026-04-23 19:22 | 60.08897 | 29.70853 | 4782 ft | 131 kts | 91° |
| 2026-04-23 19:22 | 60.08725 | 29.72659 | 4780 ft | 132 kts | 91° |
| 2026-04-23 19:22 | 60.08383 | 29.76259 | 4777 ft | 131 kts | 91° |
| 2026-04-23 19:23 | 60.08209 | 29.78068 | 4780 ft | 131 kts | 91° |
| 2026-04-23 19:23 | 60.08040 | 29.79844 | 4780 ft | 131 kts | 91° |
| 2026-04-23 19:23 | 60.07870 | 29.81626 | 4781 ft | 131 kts | 91° |
| 2026-04-23 19:24 | 60.07525 | 29.85217 | 4777 ft | 131 kts | 91° |
| 2026-04-23 19:24 | 60.07352 | 29.87004 | 4773 ft | 131 kts | 91° |
| 2026-04-23 19:24 | 60.07005 | 29.90602 | 4773 ft | 132 kts | 90° |
| 2026-04-23 19:25 | 60.06657 | 29.94213 | 4780 ft | 132 kts | 91° |
| 2026-04-23 19:25 | 60.06310 | 29.97791 | 4786 ft | 131 kts | 91° |
| 2026-04-23 19:26 | 60.05959 | 30.01384 | 4790 ft | 131 kts | 91° |
| 2026-04-23 19:26 | 60.05786 | 30.03158 | 4790 ft | 131 kts | 91° |
| 2026-04-23 19:27 | 60.05314 | 30.06709 | 4788 ft | 133 kts | 97° |
| 2026-04-23 19:27 | 60.04463 | 30.12122 | 4462 ft | 139 kts | 99° |
| 2026-04-23 19:28 | 60.03880 | 30.15781 | 4047 ft | 138 kts | 99° |
| 2026-04-23 19:28 | 60.03301 | 30.19416 | 3643 ft | 137 kts | 100° |
| 2026-04-23 19:29 | 60.03012 | 30.21227 | 3477 ft | 134 kts | 99° |
| 2026-04-23 19:29 | 60.02472 | 30.24625 | 3467 ft | 130 kts | 97° |
| 2026-04-23 19:30 | 60.01912 | 30.28158 | 3471 ft | 134 kts | 98° |
| 2026-04-23 19:30 | 60.01630 | 30.29915 | 3466 ft | 135 kts | 98° |
| 2026-04-23 19:30 | 60.01059 | 30.33485 | 3467 ft | 135 kts | 98° |
| 2026-04-23 19:31 | 60.00772 | 30.35262 | 3467 ft | 135 kts | 98° |
| 2026-04-23 19:31 | 60.00482 | 30.37067 | 3461 ft | 135 kts | 98° |
| 2026-04-23 19:31 | 60.00197 | 30.38843 | 3456 ft | 135 kts | 98° |
| 2026-04-23 19:31 | 59.99908 | 30.40644 | 3459 ft | 135 kts | 99° |
| 2026-04-23 19:32 | 59.99617 | 30.42447 | 3454 ft | 136 kts | 99° |
| 2026-04-23 19:32 | 59.99325 | 30.44243 | 3452 ft | 136 kts | 98° |
| 2026-04-23 19:32 | 59.99035 | 30.46040 | 3452 ft | 135 kts | 98° |
| 2026-04-23 19:32 | 59.98748 | 30.47817 | 3458 ft | 135 kts | 98° |
| 2026-04-23 19:33 | 59.98460 | 30.49596 | 3459 ft | 134 kts | 97° |
| 2026-04-23 19:33 | 59.98173 | 30.51368 | 3456 ft | 135 kts | 98° |
| 2026-04-23 19:33 | 59.97589 | 30.54951 | 3212 ft | 133 kts | 99° |
| 2026-04-23 19:34 | 59.97307 | 30.56689 | 3088 ft | 133 kts | 99° |
| 2026-04-23 19:34 | 59.97020 | 30.58449 | 2960 ft | 133 kts | 99° |
| 2026-04-23 19:34 | 59.96445 | 30.61975 | 2706 ft | 134 kts | 99° |
| 2026-04-23 19:35 | 59.96158 | 30.63735 | 2581 ft | 135 kts | 99° |
| 2026-04-23 19:35 | 59.95865 | 30.65524 | 2473 ft | 134 kts | 100° |
| 2026-04-23 19:35 | 59.95584 | 30.67231 | 2455 ft | 129 kts | 99° |
| 2026-04-23 19:35 | 59.95301 | 30.68971 | 2458 ft | 131 kts | 99° |
| 2026-04-23 19:36 | 59.95020 | 30.70711 | 2458 ft | 134 kts | 99° |
| 2026-04-23 19:36 | 59.94697 | 30.72474 | 2444 ft | 139 kts | 112° |
| 2026-04-23 19:36 | 59.93956 | 30.73757 | 2447 ft | 146 kts | 150° |
| 2026-04-23 19:36 | 59.92989 | 30.74384 | 2454 ft | 147 kts | 167° |
| 2026-04-23 19:37 | 59.91972 | 30.74721 | 2456 ft | 147 kts | 173° |
| 2026-04-23 19:37 | 59.90948 | 30.74942 | 2450 ft | 148 kts | 175° |
| 2026-04-23 19:37 | 59.89928 | 30.75117 | 2449 ft | 147 kts | 176° |
| 2026-04-23 19:37 | 59.88909 | 30.75273 | 2441 ft | 147 kts | 176° |
| 2026-04-23 19:38 | 59.87898 | 30.75421 | 2442 ft | 146 kts | 176° |
| 2026-04-23 19:38 | 59.86889 | 30.75564 | 2442 ft | 145 kts | 176° |
| 2026-04-23 19:38 | 59.85880 | 30.75709 | 2445 ft | 146 kts | 176° |
| 2026-04-23 19:38 | 59.84874 | 30.75852 | 2443 ft | 146 kts | 176° |
| 2026-04-23 19:39 | 59.83862 | 30.75994 | 2445 ft | 146 kts | 176° |
| 2026-04-23 19:39 | 59.82841 | 30.76138 | 2447 ft | 146 kts | 176° |
| 2026-04-23 19:39 | 59.81834 | 30.76281 | 2448 ft | 146 kts | 176° |
| 2026-04-23 19:39 | 59.80825 | 30.76301 | 2440 ft | 145 kts | 194° |
| 2026-04-23 19:40 | 59.80014 | 30.75301 | 2439 ft | 135 kts | 237° |
| 2026-04-23 19:40 | 59.79509 | 30.73753 | 2451 ft | 132 kts | 247° |
| 2026-04-23 19:40 | 59.79056 | 30.72179 | 2445 ft | 131 kts | 249° |
| 2026-04-23 19:40 | 59.78619 | 30.70605 | 2453 ft | 131 kts | 249° |
| 2026-04-23 19:41 | 59.78181 | 30.69010 | 2453 ft | 131 kts | 249° |
| 2026-04-23 19:41 | 59.77747 | 30.67421 | 2456 ft | 131 kts | 250° |
| 2026-04-23 19:41 | 59.77221 | 30.65936 | 2456 ft | 134 kts | 239° |
| 2026-04-23 19:41 | 59.76752 | 30.64355 | 2457 ft | 131 kts | 248° |
| 2026-04-23 19:42 | 59.76302 | 30.62780 | 2454 ft | 132 kts | 248° |
| 2026-04-23 19:42 | 59.75851 | 30.61201 | 2455 ft | 132 kts | 248° |
| 2026-04-23 19:42 | 59.75400 | 30.59635 | 2459 ft | 132 kts | 248° |
| 2026-04-23 19:42 | 59.74985 | 30.58032 | 2449 ft | 128 kts | 262° |
| 2026-04-23 19:43 | 59.74999 | 30.56350 | 2454 ft | 119 kts | 286° |
| 2026-04-23 19:43 | 59.75149 | 30.54759 | 2459 ft | 118 kts | 289° |
| 2026-04-23 19:43 | 59.75340 | 30.53164 | 2459 ft | 118 kts | 291° |
| 2026-04-23 19:43 | 59.75549 | 30.51601 | 2459 ft | 117 kts | 293° |
| 2026-04-23 19:44 | 59.75769 | 30.50059 | 2404 ft | 118 kts | 294° |
| 2026-04-23 19:44 | 59.76002 | 30.48485 | 2253 ft | 118 kts | 294° |
| 2026-04-23 19:44 | 59.76233 | 30.46950 | 2102 ft | 115 kts | 294° |
| 2026-04-23 19:44 | 59.76461 | 30.45439 | 1948 ft | 113 kts | 294° |
| 2026-04-23 19:45 | 59.76683 | 30.43962 | 1795 ft | 111 kts | 295° |
| 2026-04-23 19:45 | 59.76904 | 30.42500 | 1642 ft | 111 kts | 294° |
| 2026-04-23 19:45 | 59.77125 | 30.41035 | 1487 ft | 110 kts | 294° |
| 2026-04-23 19:45 | 59.77341 | 30.39601 | 1333 ft | 109 kts | 293° |
| 2026-04-23 19:46 | 59.77554 | 30.38183 | 1181 ft | 106 kts | 293° |
| 2026-04-23 19:46 | 59.77755 | 30.36830 | 1064 ft | 94 kts | 293° |
| 2026-04-23 19:46 | 59.77934 | 30.35634 | 920 ft | 89 kts | 292° |
| 2026-04-23 19:46 | 59.78105 | 30.34474 | 791 ft | 87 kts | 290° |
| 2026-04-23 19:47 | 59.78211 | 30.33738 | 715 ft | 80 kts | 291° |
| 2026-04-23 19:47 | 59.78400 | 30.32365 | 556 ft | 74 kts | 287° |
| 2026-04-23 19:47 | 59.78548 | 30.31419 | 452 ft | 70 kts | 293° |
| 2026-04-23 19:47 | 59.78691 | 30.30512 | 362 ft | 67 kts | 291° |
| 2026-04-23 19:48 | 59.78825 | 30.29643 | 271 ft | 65 kts | 290° |
| 2026-04-23 19:48 | 59.78953 | 30.28789 | 188 ft | 64 kts | 290° |
| 2026-04-23 19:48 | 59.79083 | 30.27952 | 116 ft | 63 kts | 290° |
| 2026-04-23 19:48 | 59.79193 | 30.27229 | 79 ft | 46 kts | 285° |
| 2026-04-23 19:49 | 59.79274 | 30.26664 | 79 ft | 44 kts | 288° |
| 2026-04-23 19:49 | 59.79369 | 30.26039 | 79 ft | 42 kts | 288° |
| 2026-04-23 19:49 | 59.79437 | 30.25583 | 79 ft | 26 kts | 292° |
| 2026-04-23 19:49 | 59.79481 | 30.25398 | 78 ft | 5 kts | 7° |
| 2026-04-23 19:50 | 59.79497 | 30.25519 | 78 ft | 10 kts | 85° |
| 2026-04-23 19:50 | 59.79501 | 30.25611 | 78 ft | 2 kts | 77° |
| 2026-04-23 19:50 | 59.79504 | 30.25635 | 78 ft | 2 kts | 90° |
| 2026-04-23 19:50 | 59.79514 | 30.25707 | 78 ft | 5 kts | 77° |
| 2026-04-23 19:51 | 59.79518 | 30.25751 | 79 ft | 0 kts | 73° |
| 2026-04-23 19:52 | 59.79525 | 30.25794 | 78 ft | 10 kts | 70° |
| 2026-04-23 19:52 | 59.79545 | 30.25937 | 79 ft | 1 kts | 79° |
| 2026-04-23 19:52 | 59.79554 | 30.25967 | 79 ft | 3 kts | 35° |
| 2026-04-23 19:52 | 59.79584 | 30.25987 | 79 ft | 4 kts | 26° |
| 2026-04-23 19:53 | 59.79654 | 30.26035 | 79 ft | 12 kts | 31° |
| 2026-04-23 19:53 | 59.79739 | 30.26108 | 79 ft | 15 kts | 17° |
| 2026-04-23 19:53 | 59.79855 | 30.26177 | 79 ft | 18 kts | 17° |
| 2026-04-23 19:53 | 59.79979 | 30.26250 | 79 ft | 18 kts | 16° |
| 2026-04-23 19:54 | 59.80092 | 30.26314 | 79 ft | 14 kts | 15° |
| 2026-04-23 19:54 | 59.80181 | 30.26365 | 79 ft | 13 kts | 18° |
| 2026-04-23 19:54 | 59.80275 | 30.26421 | 79 ft | 13 kts | 18° |
| 2026-04-23 19:54 | 59.80345 | 30.26445 | 79 ft | 7 kts | 358° |
| 2026-04-23 19:55 | 59.80410 | 30.26473 | 79 ft | 11 kts | 17° |
| 2026-04-23 19:55 | 59.80441 | 30.26566 | 79 ft | 6 kts | 107° |
| 2026-04-23 19:55 | 59.80425 | 30.26685 | 79 ft | 13 kts | 108° |
| 2026-04-23 19:55 | 59.80386 | 30.26936 | 79 ft | 22 kts | 107° |
| 2026-04-23 19:56 | 59.80340 | 30.27249 | 79 ft | 22 kts | 105° |
| 2026-04-23 19:56 | 59.80301 | 30.27509 | 79 ft | 17 kts | 105° |
| 2026-04-23 19:56 | 59.80264 | 30.27756 | 79 ft | 20 kts | 105° |
| 2026-04-23 19:56 | 59.80220 | 30.28051 | 79 ft | 23 kts | 105° |
| 2026-04-23 19:57 | 59.80173 | 30.28364 | 79 ft | 23 kts | 106° |
| 2026-04-23 19:57 | 59.80128 | 30.28670 | 79 ft | 22 kts | 104° |
| 2026-04-23 19:57 | 59.80090 | 30.28940 | 79 ft | 18 kts | 105° |
| 2026-04-23 19:57 | 59.80075 | 30.28945 | 79 ft | 6 kts | 236° |
| 2026-04-23 19:58 | 59.79994 | 30.28883 | 79 ft | 15 kts | 197° |
| 2026-04-23 19:58 | 59.79911 | 30.28832 | 79 ft | 9 kts | 198° |
| 2026-04-23 19:58 | 59.79867 | 30.28843 | 79 ft | 5 kts | 116° |
| 2026-04-23 19:58 | 59.79882 | 30.28887 | 79 ft | 0 kts | 353° |
| 2026-04-23 19:59 | 59.79905 | 30.28887 | 79 ft | 3 kts | 22° |
| 2026-04-23 19:59 | 59.79902 | 30.28906 | 79 ft | 2 kts | 191° |
| 2026-04-23 19:59 | 59.79889 | 30.28899 | 79 ft | 0 kts | 199° |